Time;durP1;ratioP1;P1;durP2;ratioP2;P2;SDS_P1;SDS_P2;PMS_P1;PMS_P2;Temp;Humidity;BMP_temperature;BMP_pressure;BME280_temperature;BME280_humidity;BME280_pressure;Samples;Min_cycle;Max_cycle;Signal;HPM_P1;HPM_P2
2021/08/17 00:00:50;;;;;;;8.25;3.92;;;28.80;99.90;;;;;;4159957;28;20041;-73
2021/08/17 00:02:55;;;;;;;8.45;4.00;;;28.90;99.90;;;;;;4160271;28;20053;-73
2021/08/17 00:05:03;;;;;;;6.35;3.90;;;29.00;99.90;;;;;;4158657;28;20041;-73
2021/08/17 00:07:08;;;;;;;5.93;3.72;;;29.10;99.90;;;;;;4158834;28;20049;-72
2021/08/17 00:09:14;;;;;;;5.93;3.78;;;29.10;99.90;;;;;;4155473;28;20447;-73
2021/08/17 00:11:18;;;;;;;7.22;3.88;;;29.10;99.90;;;;;;4160798;28;20061;-72
2021/08/17 00:13:23;;;;;;;8.93;3.80;;;29.20;99.90;;;;;;4158276;28;20536;-74
2021/08/17 00:15:28;;;;;;;6.45;3.80;;;29.20;99.90;;;;;;4156416;28;20149;-72
2021/08/17 00:17:32;;;;;;;6.43;3.85;;;29.20;99.90;;;;;;4157942;28;20121;-73
2021/08/17 00:19:40;;;;;;;9.82;4.38;;;29.30;99.90;;;;;;4156690;28;20059;-74
2021/08/17 00:21:44;;;;;;;9.00;4.40;;;29.30;99.90;;;;;;4158520;28;20112;-74
2021/08/17 00:23:49;;;;;;;5.95;4.00;;;29.40;99.90;;;;;;4157854;28;20037;-72
2021/08/17 00:25:54;;;;;;;7.43;4.00;;;29.50;99.90;;;;;;4159297;28;20050;-73
2021/08/17 00:27:58;;;;;;;7.78;3.85;;;29.40;99.90;;;;;;4158412;28;20065;-73
2021/08/17 00:30:04;;;;;;;5.10;3.45;;;29.40;99.90;;;;;;4159010;28;20401;-73
2021/08/17 00:32:09;;;;;;;7.13;2.95;;;29.30;99.90;;;;;;4160781;28;20107;-72
2021/08/17 00:34:14;;;;;;;4.80;3.00;;;29.20;99.90;;;;;;4156652;28;20041;-72
2021/08/17 00:36:21;;;;;;;5.65;3.08;;;29.30;99.90;;;;;;4162129;28;20053;-73
2021/08/17 00:38:26;;;;;;;4.43;2.90;;;29.50;99.90;;;;;;4157261;28;20105;-71
2021/08/17 00:40:31;;;;;;;4.68;2.92;;;29.60;99.90;;;;;;4152485;28;20054;-72
2021/08/17 00:42:43;;;;;;;5.70;2.80;;;29.70;99.90;;;;;;4165324;28;20045;-74
2021/08/17 00:44:49;;;;;;;7.07;2.77;;;29.60;99.90;;;;;;4166072;28;20095;-73
2021/08/17 00:46:56;;;;;;;6.45;2.70;;;29.50;99.90;;;;;;4166351;28;20064;-71
2021/08/17 00:49:11;;;;;;;5.75;2.78;;;29.50;99.90;;;;;;4169329;28;20041;-73
2021/08/17 00:51:19;;;;;;;6.93;3.00;;;29.50;99.90;;;;;;4139880;28;20046;-73
2021/08/17 00:54:18;;;;;;;6.90;2.88;;;29.60;99.90;;;;;;4172368;28;20061;-74
2021/08/17 00:56:27;;;;;;;4.68;2.40;;;29.70;99.90;;;;;;4170476;28;20068;-74
2021/08/17 00:58:58;;;;;;;3.50;2.50;;;29.70;99.90;;;;;;4117290;28;20053;-73
2021/08/17 01:01:05;;;;;;;5.22;2.67;;;29.80;99.90;;;;;;4168157;28;20053;-72
2021/08/17 01:03:14;;;;;;;7.22;3.42;;;29.80;99.90;;;;;;4128805;28;20047;-73
2021/08/17 01:05:23;;;;;;;4.75;2.97;;;29.70;99.90;;;;;;4165814;28;20060;-74
2021/08/17 01:07:40;;;;;;;7.63;2.88;;;29.80;99.90;;;;;;4167488;28;20067;-72
2021/08/17 01:09:45;;;;;;;6.07;2.83;;;29.80;99.90;;;;;;4160434;28;20049;-72
2021/08/17 01:12:01;;;;;;;3.80;2.40;;;29.90;99.90;;;;;;4168344;28;20124;-77
2021/08/17 01:14:22;;;;;;;5.22;2.65;;;29.90;99.90;;;;;;4176035;28;20059;-74
2021/08/17 01:16:34;;;;;;;4.82;2.58;;;29.90;99.90;;;;;;4171567;28;20096;-74
2021/08/17 01:18:40;;;;;;;4.60;2.20;;;30.00;99.90;;;;;;4166466;28;20063;-73
2021/08/17 01:20:54;;;;;;;4.45;2.35;;;30.00;99.90;;;;;;4167085;28;20049;-74
2021/08/17 01:23:09;;;;;;;4.60;2.08;;;30.10;99.90;;;;;;4159421;28;20049;-73
2021/08/17 01:25:18;;;;;;;6.00;2.47;;;30.20;99.90;;;;;;4160940;28;20088;-73
2021/08/17 01:27:26;;;;;;;4.82;2.25;;;30.10;99.90;;;;;;4155676;28;20392;-74
2021/08/17 01:29:31;;;;;;;5.07;2.20;;;30.30;99.90;;;;;;4151578;28;20145;-73
2021/08/17 01:31:36;;;;;;;5.00;2.08;;;30.40;99.90;;;;;;4155191;28;20044;-70
2021/08/17 01:33:40;;;;;;;6.00;2.40;;;30.40;99.90;;;;;;4156124;28;20573;-72
2021/08/17 01:35:45;;;;;;;8.00;2.08;;;30.30;99.90;;;;;;4158046;28;20038;-74
2021/08/17 01:37:52;;;;;;;3.75;2.10;;;30.50;99.90;;;;;;4174949;28;20400;-75
2021/08/17 01:40:04;;;;;;;2.70;1.90;;;30.60;99.90;;;;;;4159417;28;20045;-74
2021/08/17 01:42:11;;;;;;;3.30;2.05;;;30.60;99.90;;;;;;4163155;28;20046;-73
2021/08/17 01:44:22;;;;;;;4.22;1.83;;;30.70;99.90;;;;;;4179780;28;20049;-74
2021/08/17 01:46:29;;;;;;;4.70;2.20;;;30.60;99.90;;;;;;4163897;28;20053;-74
2021/08/17 01:48:34;;;;;;;5.65;2.40;;;30.80;99.90;;;;;;4164786;28;20050;-74
2021/08/17 01:50:50;;;;;;;;;;;30.80;99.90;;;;;;4166153;28;20046;-73
2021/08/17 01:53:07;;;;;;;8.02;2.53;;;30.90;99.90;;;;;;4168105;28;20307;-77
2021/08/17 01:55:24;;;;;;;3.50;1.90;;;31.10;99.90;;;;;;4160807;28;20140;-73
2021/08/17 01:57:50;;;;;;;3.28;1.65;;;31.10;99.90;;;;;;4154827;28;20058;-74
2021/08/17 01:59:54;;;;;;;2.67;1.60;;;31.20;99.90;;;;;;4161738;28;20588;-72
2021/08/17 02:02:00;;;;;;;4.45;1.73;;;31.30;98.90;;;;;;4165410;28;20045;-73
2021/08/17 02:04:05;;;;;;;3.25;1.80;;;31.30;98.20;;;;;;4162729;28;20116;-72
2021/08/17 02:06:10;;;;;;;3.65;1.77;;;31.40;98.90;;;;;;4159391;28;20054;-73
2021/08/17 02:08:18;;;;;;;3.45;1.80;;;31.50;98.80;;;;;;4166578;28;20037;-73
2021/08/17 02:10:38;;;;;;;4.35;2.13;;;31.40;98.40;;;;;;4171357;28;20048;-74
2021/08/17 02:13:08;;;;;;;4.45;1.90;;;31.30;97.60;;;;;;4163549;28;20571;-71
2021/08/17 02:15:18;;;;;;;3.63;2.20;;;31.40;98.10;;;;;;4165489;28;20041;-71
2021/08/17 02:17:30;;;;;;;8.82;2.47;;;31.40;97.90;;;;;;4138618;28;20054;-72
2021/08/17 02:19:37;;;;;;;5.00;1.90;;;31.50;96.60;;;;;;4161116;28;20050;-70
2021/08/17 02:21:47;;;;;;;3.92;2.17;;;31.60;95.90;;;;;;4173627;28;20447;-70
2021/08/17 02:24:02;;;;;;;3.08;1.90;;;31.70;96.40;;;;;;4176306;28;20045;-69
2021/08/17 02:26:25;;;;;;;4.35;2.08;;;31.80;97.10;;;;;;4140233;28;20142;-70
2021/08/17 02:28:58;;;;;;;4.68;2.03;;;31.80;95.50;;;;;;4162323;28;20048;-71
2021/08/17 02:31:10;;;;;;;2.83;1.88;;;31.90;95.40;;;;;;4165761;28;20038;-71
2021/08/17 02:33:19;;;;;;;5.00;1.95;;;32.00;94.40;;;;;;4160132;28;20046;-70
2021/08/17 02:35:25;;;;;;;5.32;2.20;;;32.10;94.80;;;;;;4163873;28;20084;-70
2021/08/17 02:37:36;;;;;;;3.63;2.05;;;32.20;94.30;;;;;;4128245;28;20128;-70
2021/08/17 02:39:52;;;;;;;4.45;2.20;;;32.20;94.10;;;;;;4164070;28;20060;-65
2021/08/17 02:42:10;;;;;;;5.25;2.20;;;32.20;95.40;;;;;;4167926;28;20077;-66
2021/08/17 02:44:18;;;;;;;8.50;2.00;;;32.20;92.20;;;;;;4163057;28;20054;-66
2021/08/17 02:46:52;;;;;;;3.40;1.88;;;32.30;92.30;;;;;;4164194;28;20034;-67
2021/08/17 02:49:02;;;;;;;7.03;2.40;;;32.30;92.40;;;;;;4161070;28;20574;-66
2021/08/17 02:51:07;;;;;;;4.20;2.00;;;32.30;92.70;;;;;;4164684;28;20043;-67
2021/08/17 02:53:27;;;;;;;2.90;2.00;;;32.30;92.10;;;;;;4162696;28;20052;-67
2021/08/17 02:55:54;;;;;;;5.43;2.33;;;32.30;91.60;;;;;;4170577;28;20133;-74
2021/08/17 02:58:08;;;;;;;3.42;2.15;;;32.30;92.00;;;;;;4179900;28;20058;-74
2021/08/17 03:00:18;;;;;;;4.22;2.15;;;32.50;91.70;;;;;;4163817;28;20061;-74
2021/08/17 03:02:32;;;;;;;3.20;1.77;;;32.50;91.80;;;;;;4137774;28;20039;-74
2021/08/17 03:04:42;;;;;;;2.80;1.88;;;32.50;91.50;;;;;;4165117;28;20065;-75
2021/08/17 03:06:52;;;;;;;3.20;1.80;;;32.60;91.70;;;;;;4167974;28;20396;-74
2021/08/17 03:09:17;;;;;;;6.03;2.38;;;32.60;91.60;;;;;;4166185;28;20088;-73
2021/08/17 03:11:33;;;;;;;4.20;2.10;;;32.50;91.90;;;;;;4172075;28;20137;-74
2021/08/17 03:13:45;;;;;;;2.10;1.67;;;32.50;92.40;;;;;;4163881;28;20493;-74
2021/08/17 03:15:53;;;;;;;3.85;2.00;;;32.50;92.80;;;;;;4164461;28;20042;-75
2021/08/17 03:18:03;;;;;;;3.53;1.70;;;32.50;91.90;;;;;;4158734;28;20033;-65
2021/08/17 03:20:18;;;;;;;3.93;1.90;;;32.50;92.30;;;;;;4160529;28;20669;-65
2021/08/17 03:22:29;;;;;;;3.55;1.73;;;32.40;92.40;;;;;;4166754;28;20049;-66
2021/08/17 03:24:48;;;;;;;3.55;1.67;;;32.50;92.20;;;;;;4161982;28;20163;-65
2021/08/17 03:27:21;;;;;;;3.15;1.67;;;32.50;92.20;;;;;;4122079;28;20051;-64
2021/08/17 03:30:01;;;;;;;3.50;1.75;;;32.50;91.50;;;;;;4168521;28;20064;-67
2021/08/17 03:32:31;;;;;;;3.35;1.92;;;32.40;92.00;;;;;;4158618;28;20044;-66
2021/08/17 03:34:39;;;;;;;5.07;1.63;;;32.50;92.00;;;;;;4163287;28;20049;-65
2021/08/17 03:36:50;;;;;;;4.15;1.67;;;32.60;92.00;;;;;;4165121;28;20396;-75
2021/08/17 03:39:18;;;;;;;4.45;1.92;;;32.60;91.60;;;;;;4172516;28;20072;-74
2021/08/17 03:41:26;;;;;;;2.58;1.60;;;32.70;91.90;;;;;;4167310;28;20037;-65
2021/08/17 03:43:47;;;;;;;3.15;1.55;;;32.80;91.50;;;;;;4158583;28;20489;-65
2021/08/17 03:46:06;;;;;;;3.53;1.60;;;32.80;90.70;;;;;;4138568;28;20042;-65
2021/08/17 03:48:29;;;;;;;2.75;1.65;;;32.80;91.20;;;;;;4163599;28;20129;-66
2021/08/17 03:50:50;;;;;;;4.10;1.75;;;32.80;91.20;;;;;;4146894;28;20056;-66
2021/08/17 03:53:15;;;;;;;2.75;1.83;;;32.90;90.70;;;;;;4169155;28;20044;-66
2021/08/17 03:55:45;;;;;;;2.92;2.00;;;33.10;90.50;;;;;;4100984;28;20055;-66
2021/08/17 03:58:45;;;;;;;2.47;1.33;;;33.20;89.30;;;;;;4154812;28;20069;-68
2021/08/17 04:01:10;;;;;;;;;;;;;;;;;;;;;
2021/08/17 04:03:38;;;;;;;5.75;1.98;;;32.90;90.40;;;;;;4167439;28;20346;-69
2021/08/17 04:06:18;;;;;;;2.33;1.52;;;32.90;90.50;;;;;;4162552;28;20104;-66
2021/08/17 04:08:33;;;;;;;6.45;1.77;;;33.10;90.60;;;;;;4160201;28;20057;-66
2021/08/17 04:10:47;;;;;;;5.07;1.48;;;33.30;90.70;;;;;;4148732;28;20034;-65
2021/08/17 04:13:09;;;;;;;2.78;1.55;;;33.30;91.10;;;;;;4169465;28;20484;-68
2021/08/17 04:15:22;;;;;;;3.05;1.75;;;33.50;90.90;;;;;;4128335;28;20053;-70
2021/08/17 04:17:41;;;;;;;5.05;1.50;;;33.50;88.10;;;;;;4165404;28;20049;-69
2021/08/17 04:20:02;;;;;;;3.03;1.73;;;33.50;87.60;;;;;;4121851;28;20078;-68
2021/08/17 04:22:16;;;;;;;4.97;1.50;;;33.60;87.70;;;;;;4140442;28;20050;-74
2021/08/17 04:24:30;;;;;;;2.05;1.40;;;33.70;86.30;;;;;;4161380;28;20050;-74
2021/08/17 04:26:52;;;;;;;3.47;1.60;;;33.80;86.70;;;;;;4137955;28;20054;-75
2021/08/17 04:29:02;;;;;;;3.28;1.55;;;33.80;86.80;;;;;;4165819;28;20076;-74
2021/08/17 04:31:25;;;;;;;1.95;1.25;;;33.90;87.30;;;;;;4170912;28;20060;-72
2021/08/17 04:33:47;;;;;;;4.97;1.40;;;33.90;87.50;;;;;;4166838;28;20033;-73
2021/08/17 04:36:10;;;;;;;3.90;1.40;;;34.00;86.90;;;;;;4170476;28;20045;-74
2021/08/17 04:38:31;;;;;;;2.83;1.75;;;34.10;86.20;;;;;;4170684;28;20091;-73
2021/08/17 04:40:54;;;;;;;3.20;1.30;;;33.90;85.20;;;;;;4123074;28;20082;-73
2021/08/17 04:43:04;;;;;;;4.47;1.45;;;33.90;85.10;;;;;;4137396;28;20042;-74
2021/08/17 04:45:19;;;;;;;3.13;1.35;;;34.00;82.70;;;;;;4138195;28;20663;-74
2021/08/17 04:47:49;;;;;;;3.13;1.63;;;34.10;82.00;;;;;;4170438;28;20053;-75
2021/08/17 04:50:11;;;;;;;1.95;1.20;;;34.10;82.70;;;;;;4169439;28;20504;-75
2021/08/17 04:52:20;;;;;;;4.85;1.45;;;34.10;84.10;;;;;;4147954;28;20054;-74
2021/08/17 04:54:37;;;;;;;3.53;1.67;;;34.10;84.50;;;;;;4149496;28;20085;-69
2021/08/17 04:56:48;;;;;;;4.22;1.40;;;34.20;85.20;;;;;;4161520;28;20037;-69
2021/08/17 04:59:11;;;;;;;2.53;1.60;;;34.30;85.40;;;;;;4151143;28;20073;-72
2021/08/17 05:01:22;;;;;;;2.22;1.30;;;34.30;85.50;;;;;;4152891;28;20077;-70
2021/08/17 05:03:33;;;;;;;4.60;1.30;;;34.50;82.10;;;;;;4159690;28;20053;-72
2021/08/17 05:06:09;;;;;;;2.15;1.20;;;34.40;79.50;;;;;;4163468;28;20136;-69
2021/08/17 05:08:20;;;;;;;3.58;1.50;;;34.30;79.60;;;;;;4159465;28;20141;-72
2021/08/17 05:10:31;;;;;;;2.28;1.50;;;34.20;80.60;;;;;;4161030;28;20046;-70
2021/08/17 05:12:41;;;;;;;2.15;1.15;;;34.10;82.70;;;;;;4159506;28;20101;-72
2021/08/17 05:14:54;;;;;;;2.00;1.15;;;34.10;80.30;;;;;;4160654;28;20044;-69
2021/08/17 05:17:35;;;;;;;3.75;1.20;;;34.30;78.40;;;;;;4167014;28;20041;-69
2021/08/17 05:19:43;;;;;;;3.53;1.40;;;34.30;77.60;;;;;;4180808;28;20392;-70
2021/08/17 05:21:51;;;;;;;2.70;1.58;;;34.40;79.60;;;;;;4158428;28;20570;-69
2021/08/17 05:23:57;;;;;;;2.58;1.25;;;34.40;78.30;;;;;;4162023;28;20033;-71
2021/08/17 05:26:02;;;;;;;3.92;1.42;;;34.50;78.70;;;;;;4163315;28;20037;-69
2021/08/17 05:28:07;;;;;;;2.70;1.38;;;34.50;78.70;;;;;;4158783;28;20116;-69
2021/08/17 05:30:16;;;;;;;2.13;1.25;;;34.60;77.00;;;;;;4160656;28;20117;-70
2021/08/17 05:32:46;;;;;;;1.55;1.10;;;34.60;76.90;;;;;;4165212;28;20104;-69
2021/08/17 05:35:07;;;;;;;2.63;1.33;;;34.50;77.20;;;;;;4181577;28;20112;-71
2021/08/17 05:37:33;;;;;;;4.07;1.40;;;34.20;76.20;;;;;;4157604;28;20267;-69
2021/08/17 05:39:45;;;;;;;2.08;1.13;;;34.10;76.50;;;;;;4157291;28;20052;-69
2021/08/17 05:41:53;;;;;;;2.70;1.00;;;33.90;76.00;;;;;;4163615;28;20060;-70
2021/08/17 05:43:58;;;;;;;3.97;1.52;;;34.00;74.60;;;;;;4158798;28;20083;-69
2021/08/17 05:46:03;;;;;;;3.65;1.30;;;34.10;77.40;;;;;;4156967;28;20043;-70
2021/08/17 05:48:08;;;;;;;3.75;1.42;;;34.30;77.50;;;;;;4160128;28;20385;-70
2021/08/17 05:50:25;;;;;;;3.35;1.48;;;34.40;77.20;;;;;;4163988;28;20050;-71
2021/08/17 05:52:49;;;;;;;2.47;1.20;;;34.60;76.60;;;;;;4167069;28;20131;-69
2021/08/17 05:55:02;;;;;;;3.05;1.50;;;34.70;76.90;;;;;;4162085;28;20065;-70
2021/08/17 05:57:24;;;;;;;2.45;1.23;;;34.60;75.70;;;;;;4147685;28;20046;-69
2021/08/17 05:59:51;;;;;;;3.55;1.15;;;34.80;74.90;;;;;;4105247;28;20133;-71
2021/08/17 06:02:26;;;;;;;1.42;0.98;;;34.70;74.30;;;;;;4117977;28;20041;-70
2021/08/17 06:04:48;;;;;;;1.65;1.20;;;34.80;73.70;;;;;;4132043;28;20046;-71
2021/08/17 06:07:23;;;;;;;3.47;1.77;;;34.70;74.10;;;;;;4116213;28;20085;-69
2021/08/17 06:09:38;;;;;;;4.13;1.63;;;34.90;74.30;;;;;;4117030;28;20123;-72
2021/08/17 06:12:01;;;;;;;2.30;1.50;;;35.20;72.30;;;;;;4101751;28;20441;-71
2021/08/17 06:14:12;;;;;;;2.72;1.30;;;35.20;72.10;;;;;;4120733;28;20047;-72
2021/08/17 06:16:36;;;;;;;1.63;1.10;;;35.30;70.60;;;;;;4121554;28;20047;-72
2021/08/17 06:18:43;;;;;;;3.47;1.20;;;35.20;72.90;;;;;;4120023;28;20357;-73
2021/08/17 06:20:53;;;;;;;2.20;1.50;;;35.10;73.90;;;;;;4119064;28;20089;-72
2021/08/17 06:22:57;;;;;;;2.45;1.30;;;35.00;74.20;;;;;;4119952;28;20040;-73
2021/08/17 06:25:31;;;;;;;2.55;1.42;;;34.90;73.40;;;;;;4119790;28;20078;-69
2021/08/17 06:27:36;;;;;;;1.98;1.08;;;34.90;74.10;;;;;;4093704;28;20051;-71
2021/08/17 06:29:47;;;;;;;1.25;1.05;;;34.80;72.70;;;;;;4088133;29;20129;-72
2021/08/17 06:32:00;;;;;;;2.80;1.40;;;34.90;72.80;;;;;;4200540;28;20600;-72
2021/08/17 06:34:10;;;;;;;1.70;1.10;;;34.80;73.90;;;;;;4149955;28;20054;-73
2021/08/17 06:36:20;;;;;;;2.38;1.10;;;34.80;74.90;;;;;;4178570;28;20044;-72
2021/08/17 06:38:48;;;;;;;1.98;1.30;;;34.60;75.30;;;;;;4163312;28;20081;-72
2021/08/17 06:40:56;;;;;;;2.33;1.10;;;34.50;75.10;;;;;;4170094;28;20041;-71
2021/08/17 06:43:04;;;;;;;2.97;1.52;;;34.40;76.10;;;;;;4165039;28;20048;-71
2021/08/17 06:45:12;;;;;;;5.93;2.03;;;34.60;76.10;;;;;;4153498;28;20073;-72
2021/08/17 06:47:16;;;;;;;2.25;1.15;;;34.80;75.20;;;;;;4162681;28;20045;-71
2021/08/17 06:49:21;;;;;;;2.90;1.10;;;34.80;72.30;;;;;;4166710;28;20041;-72
2021/08/17 06:51:25;;;;;;;1.75;1.13;;;34.80;74.90;;;;;;4166493;28;20080;-71
2021/08/17 06:53:30;;;;;;;1.98;1.00;;;34.80;73.90;;;;;;4162729;28;20053;-70
2021/08/17 06:55:35;;;;;;;3.97;1.40;;;34.80;73.30;;;;;;4167706;28;20064;-71
2021/08/17 06:57:40;;;;;;;2.50;1.10;;;34.60;73.50;;;;;;4162037;28;20045;-72
2021/08/17 06:59:45;;;;;;;3.83;1.08;;;34.40;74.10;;;;;;4162547;28;20413;-73
2021/08/17 07:01:50;;;;;;;1.50;1.02;;;34.20;74.30;;;;;;4162414;28;20041;-70
2021/08/17 07:03:55;;;;;;;2.55;1.02;;;34.40;75.20;;;;;;4165981;28;20053;-73
2021/08/17 07:05:59;;;;;;;2.45;1.05;;;34.60;75.70;;;;;;4159065;28;20046;-73
2021/08/17 07:08:05;;;;;;;2.45;1.20;;;34.90;74.10;;;;;;4162997;28;20053;-72
2021/08/17 07:10:13;;;;;;;1.80;1.10;;;34.90;72.90;;;;;;4160239;28;20061;-72
2021/08/17 07:12:19;;;;;;;1.10;1.00;;;35.10;73.90;;;;;;4171674;28;20447;-73
2021/08/17 07:14:32;;;;;;;2.67;1.13;;;35.00;72.90;;;;;;4161589;28;20074;-74
2021/08/17 07:16:43;;;;;;;2.13;1.25;;;35.10;73.30;;;;;;4132549;28;20054;-72
2021/08/17 07:18:57;;;;;;;4.47;1.23;;;35.20;72.80;;;;;;4165398;28;20049;-72
2021/08/17 07:21:08;;;;;;;1.98;1.20;;;35.20;72.70;;;;;;4162679;28;20042;-73
2021/08/17 07:23:16;;;;;;;2.00;1.13;;;35.20;71.30;;;;;;4169451;28;20049;-71
2021/08/17 07:25:27;;;;;;;2.40;1.38;;;35.20;72.20;;;;;;4167055;28;20128;-73
2021/08/17 07:27:32;;;;;;;2.72;1.10;;;35.30;72.90;;;;;;4128208;28;20218;-70
2021/08/17 07:29:39;;;;;;;2.70;1.13;;;35.40;72.10;;;;;;4157468;28;20572;-69
2021/08/17 07:31:55;;;;;;;2.03;1.27;;;35.50;69.90;;;;;;4161157;28;20045;-70
2021/08/17 07:34:05;;;;;;;2.25;1.05;;;35.50;70.30;;;;;;4159543;28;20060;-71
2021/08/17 07:36:12;;;;;;;4.72;1.35;;;35.60;70.30;;;;;;4148539;28;20050;-71
2021/08/17 07:38:21;;;;;;;3.30;1.10;;;35.60;71.40;;;;;;4160785;28;20567;-71
2021/08/17 07:40:36;;;;;;;1.55;1.10;;;35.40;70.60;;;;;;4169886;28;20065;-71
2021/08/17 07:42:50;;;;;;;2.20;1.20;;;35.60;71.40;;;;;;4180502;28;20048;-73
2021/08/17 07:45:05;;;;;;;1.77;1.10;;;35.80;69.40;;;;;;4152750;28;20038;-70
2021/08/17 07:47:13;;;;;;;5.67;1.20;;;35.70;67.80;;;;;;4153092;28;20046;-74
2021/08/17 07:49:18;;;;;;;2.33;1.10;;;35.70;69.50;;;;;;4162247;28;20648;-70
2021/08/17 07:51:41;;;;;;;3.15;1.40;;;36.00;70.20;;;;;;4140216;28;20050;-74
2021/08/17 07:54:09;;;;;;;1.70;1.00;;;36.20;67.20;;;;;;4143315;28;20416;-73
2021/08/17 07:56:22;;;;;;;1.23;1.10;;;36.10;68.00;;;;;;4129785;28;20042;-72
2021/08/17 07:58:43;;;;;;;1.67;1.02;;;35.90;66.40;;;;;;4161857;28;20426;-74
2021/08/17 08:01:13;;;;;;;1.88;0.90;;;35.80;67.60;;;;;;4154554;28;20318;-74
2021/08/17 08:03:30;;;;;;;2.42;1.23;;;36.00;67.60;;;;;;4157951;28;20455;-72
2021/08/17 08:05:50;;;;;;;3.05;1.40;;;36.10;65.70;;;;;;4162099;28;20049;-72
2021/08/17 08:07:57;;;;;;;6.38;2.83;;;36.10;66.60;;;;;;4155524;28;20045;-71
2021/08/17 08:10:01;;;;;;;3.30;2.08;;;36.10;66.60;;;;;;4154711;28;20108;-71
2021/08/17 08:12:07;;;;;;;5.03;2.33;;;36.00;66.40;;;;;;4176763;28;20049;-71
2021/08/17 08:14:13;;;;;;;5.03;3.13;;;35.90;67.00;;;;;;4155928;28;20116;-71
2021/08/17 08:16:18;;;;;;;3.65;1.85;;;35.90;66.20;;;;;;4147695;28;20503;-72
2021/08/17 08:18:23;;;;;;;4.95;3.97;;;35.90;67.50;;;;;;4156435;28;20043;-71
2021/08/17 08:20:27;;;;;;;35.67;31.85;;;36.00;67.40;;;;;;4158821;28;20048;-71
2021/08/17 08:22:32;;;;;;;9.75;8.77;;;36.10;66.00;;;;;;4154709;28;20053;-72
2021/08/17 08:24:37;;;;;;;5.22;3.67;;;36.10;66.30;;;;;;4156980;28;20042;-71
2021/08/17 08:26:43;;;;;;;8.45;5.80;;;36.00;66.10;;;;;;4150168;28;20060;-71
2021/08/17 08:28:48;;;;;;;3.47;2.22;;;36.00;66.90;;;;;;4143437;28;20432;-71
2021/08/17 08:30:53;;;;;;;1.70;1.35;;;36.10;66.80;;;;;;4158802;28;20050;-71
2021/08/17 08:32:57;;;;;;;3.65;1.30;;;36.20;68.10;;;;;;4158659;28;20060;-71
2021/08/17 08:35:05;;;;;;;3.08;1.83;;;36.30;67.70;;;;;;4156014;28;20049;-72
2021/08/17 08:37:10;;;;;;;2.60;1.25;;;36.30;66.10;;;;;;4159291;28;20069;-71
2021/08/17 08:39:17;;;;;;;2.90;1.48;;;36.20;68.10;;;;;;4158756;28;20132;-69
2021/08/17 08:41:23;;;;;;;2.78;1.55;;;36.10;66.10;;;;;;4153614;28;20436;-71
2021/08/17 08:43:28;;;;;;;2.13;0.90;;;36.10;66.90;;;;;;4170313;28;20080;-70
2021/08/17 08:45:35;;;;;;;2.72;1.00;;;36.10;69.10;;;;;;4160115;28;20052;-71
2021/08/17 08:47:40;;;;;;;1.48;1.00;;;36.20;69.30;;;;;;4156434;28;20050;-72
2021/08/17 08:49:44;;;;;;;3.15;1.50;;;36.20;69.70;;;;;;4160459;28;20139;-72
2021/08/17 08:51:50;;;;;;;1.55;1.00;;;36.20;71.60;;;;;;4125272;28;20371;-71
2021/08/17 08:53:54;;;;;;;1.73;1.10;;;36.30;71.20;;;;;;4143942;28;20045;-71
2021/08/17 08:56:00;;;;;;;2.80;1.00;;;36.30;71.30;;;;;;4140376;28;20061;-71
2021/08/17 08:58:04;;;;;;;3.45;1.25;;;36.20;71.70;;;;;;4142823;28;20042;-72
2021/08/17 09:00:10;;;;;;;4.40;1.60;;;36.20;71.90;;;;;;4143700;28;20056;-69
2021/08/17 09:02:17;;;;;;;2.50;1.23;;;36.20;72.20;;;;;;4136643;28;20054;-69
2021/08/17 09:04:25;;;;;;;2.70;1.50;;;36.20;72.60;;;;;;4141780;28;20367;-68
2021/08/17 09:06:31;;;;;;;3.28;1.20;;;36.20;72.40;;;;;;4143705;28;20468;-69
2021/08/17 09:08:36;;;;;;;2.10;1.38;;;36.20;72.30;;;;;;4141856;28;20038;-69
2021/08/17 09:10:42;;;;;;;1.67;1.00;;;36.20;72.20;;;;;;4144091;28;20652;-69
2021/08/17 09:12:49;;;;;;;2.65;1.30;;;36.20;71.80;;;;;;4146123;28;20117;-69
2021/08/17 09:15:05;;;;;;;2.90;1.52;;;35.90;72.70;;;;;;4145124;28;20056;-70
2021/08/17 09:17:11;;;;;;;1.93;1.20;;;35.80;73.20;;;;;;4147068;28;20426;-69
2021/08/17 09:19:42;;;;;;;2.97;1.42;;;35.80;73.10;;;;;;4144095;28;20141;-69
2021/08/17 09:21:51;;;;;;;3.83;1.20;;;35.80;73.30;;;;;;4148399;28;20042;-68
2021/08/17 09:23:56;;;;;;;1.52;1.05;;;35.80;72.60;;;;;;4157375;28;20045;-68
2021/08/17 09:26:20;;;;;;;9.80;2.00;;;35.80;72.70;;;;;;4157465;28;20045;-68
2021/08/17 09:28:43;;;;;;;1.77;0.98;;;35.90;73.10;;;;;;4163510;28;20108;-69
2021/08/17 09:30:47;;;;;;;;;;;35.90;73.40;;;;;;4181714;28;20051;-69
2021/08/17 09:32:57;;;;;;;3.08;1.10;;;35.90;72.30;;;;;;4156114;28;19976;-69
2021/08/17 09:35:03;;;;;;;2.38;1.10;;;35.90;72.50;;;;;;4177875;28;20076;-68
2021/08/17 09:37:13;;;;;;;2.45;1.20;;;35.90;72.60;;;;;;4162565;28;20072;-69
2021/08/17 09:39:30;;;;;;;2.25;1.20;;;35.90;72.10;;;;;;4159583;28;20076;-69
2021/08/17 09:41:34;;;;;;;2.42;1.65;;;35.90;72.80;;;;;;4156605;28;20048;-69
2021/08/17 09:44:00;;;;;;;2.13;1.40;;;35.90;73.00;;;;;;4158784;28;20038;-73
2021/08/17 09:46:17;;;;;;;3.05;1.83;;;35.90;73.10;;;;;;4151194;28;20041;-70
2021/08/17 09:48:36;;;;;;;2.38;1.20;;;35.90;73.10;;;;;;4160791;28;20041;-71
2021/08/17 09:50:47;;;;;;;2.08;1.20;;;35.80;73.10;;;;;;4133475;28;20051;-71
2021/08/17 09:53:07;;;;;;;2.88;1.83;;;35.70;73.20;;;;;;4158353;28;20073;-68
2021/08/17 09:55:17;;;;;;;3.42;1.65;;;35.60;73.60;;;;;;4160326;28;20132;-69
2021/08/17 09:57:22;;;;;;;2.67;1.40;;;35.60;74.20;;;;;;4159330;28;20045;-69
2021/08/17 09:59:27;;;;;;;4.00;1.60;;;35.60;74.70;;;;;;4158545;28;20050;-69
2021/08/17 10:01:32;;;;;;;4.47;1.85;;;35.60;74.70;;;;;;4160852;28;20099;-68
2021/08/17 10:03:37;;;;;;;2.92;1.52;;;35.60;74.40;;;;;;4161792;28;20053;-70
2021/08/17 10:05:42;;;;;;;3.72;1.65;;;35.60;74.40;;;;;;4158086;28;20046;-70
2021/08/17 10:07:47;;;;;;;3.13;1.33;;;35.70;74.30;;;;;;4164335;28;20045;-70
2021/08/17 10:09:51;;;;;;;3.47;1.73;;;35.70;74.30;;;;;;4164694;28;20624;-70
2021/08/17 10:11:56;;;;;;;4.63;1.77;;;35.60;74.40;;;;;;4153400;28;20041;-70
2021/08/17 10:14:01;;;;;;;2.25;1.27;;;35.60;74.40;;;;;;4160558;28;20053;-71
2021/08/17 10:16:06;;;;;;;2.92;1.20;;;35.60;74.40;;;;;;4152170;28;20149;-70
2021/08/17 10:18:16;;;;;;;6.40;1.60;;;35.60;74.80;;;;;;4146085;28;20046;-71
2021/08/17 10:20:21;;;;;;;3.97;2.28;;;35.50;74.40;;;;;;4137077;28;20042;-71
2021/08/17 10:22:26;;;;;;;2.90;1.50;;;35.50;75.00;;;;;;4145888;28;20547;-70
2021/08/17 10:24:37;;;;;;;4.20;1.60;;;35.50;74.90;;;;;;4156996;28;20052;-70
2021/08/17 10:26:41;;;;;;;6.10;1.85;;;35.50;74.90;;;;;;4151604;28;20049;-69
2021/08/17 10:28:46;;;;;;;2.38;1.63;;;35.40;75.50;;;;;;4158802;28;20388;-70
2021/08/17 10:30:51;;;;;;;3.50;1.83;;;35.30;76.30;;;;;;4155565;28;20100;-69
2021/08/17 10:32:56;;;;;;;3.70;1.90;;;35.30;77.40;;;;;;4153790;28;20050;-70
2021/08/17 10:35:01;;;;;;;4.22;2.08;;;35.10;78.00;;;;;;4158351;28;20099;-70
2021/08/17 10:37:19;;;;;;;3.40;1.75;;;35.10;78.40;;;;;;4154367;28;20111;-70
2021/08/17 10:39:24;;;;;;;3.45;2.00;;;35.10;78.30;;;;;;4153814;28;20563;-71
2021/08/17 10:41:30;;;;;;;5.07;1.95;;;35.00;78.50;;;;;;4155521;28;20042;-71
2021/08/17 10:43:37;;;;;;;2.47;1.60;;;35.00;78.80;;;;;;4168165;28;20100;-71
2021/08/17 10:46:03;;;;;;;4.82;2.03;;;35.00;79.20;;;;;;4168801;28;20565;-71
2021/08/17 10:48:09;;;;;;;3.03;1.92;;;34.90;79.60;;;;;;4170060;28;20413;-70
2021/08/17 10:50:21;;;;;;;6.45;1.90;;;34.90;78.00;;;;;;4167995;28;20519;-70
2021/08/17 10:52:36;;;;;;;5.07;2.17;;;34.70;79.00;;;;;;4141828;28;20060;-73
2021/08/17 10:54:43;;;;;;;3.45;1.90;;;34.70;79.00;;;;;;4158715;28;20054;-70
2021/08/17 10:56:48;;;;;;;11.93;2.42;;;34.70;79.30;;;;;;4158378;28;20050;-71
2021/08/17 10:58:57;;;;;;;6.43;2.05;;;34.60;79.40;;;;;;4152648;28;20045;-71
2021/08/17 11:01:01;;;;;;;7.00;2.03;;;34.50;79.60;;;;;;4169894;28;20037;-71
2021/08/17 11:03:06;;;;;;;3.45;2.00;;;34.50;78.90;;;;;;4156411;28;20053;-70
2021/08/17 11:05:11;;;;;;;8.73;1.80;;;34.40;80.00;;;;;;4157099;28;20145;-70
2021/08/17 11:07:26;;;;;;;4.82;2.10;;;34.30;80.40;;;;;;4158893;28;20049;-70
2021/08/17 11:09:37;;;;;;;3.88;1.70;;;34.20;80.70;;;;;;4158499;28;20196;-71
2021/08/17 11:11:47;;;;;;;5.68;1.95;;;34.10;81.30;;;;;;4142551;28;20619;-70
2021/08/17 11:14:09;;;;;;;10.55;1.92;;;34.00;81.50;;;;;;4160440;28;20045;-71
2021/08/17 11:16:14;;;;;;;3.83;1.80;;;34.00;81.90;;;;;;4158649;28;20485;-71
2021/08/17 11:18:21;;;;;;;6.40;2.25;;;33.90;82.30;;;;;;4160726;28;20403;-69
2021/08/17 11:20:25;;;;;;;5.75;1.95;;;33.90;82.80;;;;;;4143759;28;20046;-70
2021/08/17 11:22:47;;;;;;;6.25;2.45;;;33.80;83.40;;;;;;4161012;28;20511;-70
2021/08/17 11:24:55;;;;;;;6.45;2.40;;;33.60;84.20;;;;;;4160455;28;20049;-69
2021/08/17 11:27:05;;;;;;;5.47;3.00;;;33.60;84.30;;;;;;4159414;28;20037;-70
2021/08/17 11:29:15;;;;;;;8.50;3.40;;;33.50;84.90;;;;;;4159922;28;20053;-71